BAW745C EGKK-EHAM
Flight info
| Callsign | BAW745C |
|---|---|
| Flight time | N/A |
| Altitude | 29000 |
| Route | FRANE1Z FRANE M604 GASBA M197 REDFA REDFA1A |
| Aircraft | A320/M-SDE3FGHIRWY/LB1 |
Departure
| Time | 2026-05-07 20:40 |
|---|---|
| Airport | London Gatwick Airport (EGKK) |
Arrival
| Time | N/A |
|---|---|
| Airport | Amsterdam Airport Schiphol (EHAM) |
| Time | Latitude | Longitude | Altitude | Speed | Heading |
|---|---|---|---|---|---|
| 2026-05-07 20:14 | 51.15903 | -0.17965 | 205 ft | 0 kts | 77° |
| 2026-05-07 20:28 | 51.15899 | -0.17998 | 213 ft | 4 kts | 80° |
| 2026-05-07 20:28 | 51.15895 | -0.18041 | 211 ft | 4 kts | 88° |
| 2026-05-07 20:28 | 51.15897 | -0.18083 | 211 ft | 4 kts | 113° |
| 2026-05-07 20:28 | 51.15909 | -0.18106 | 215 ft | 1 kts | 167° |
| 2026-05-07 20:31 | 51.15908 | -0.18106 | 215 ft | 1 kts | 167° |
| 2026-05-07 20:32 | 51.15867 | -0.18090 | 206 ft | 9 kts | 165° |
| 2026-05-07 20:32 | 51.15793 | -0.18069 | 214 ft | 13 kts | 168° |
| 2026-05-07 20:32 | 51.15721 | -0.18046 | 208 ft | 7 kts | 178° |
| 2026-05-07 20:32 | 51.15682 | -0.18109 | 207 ft | 10 kts | 246° |
| 2026-05-07 20:33 | 51.15670 | -0.18169 | 215 ft | 7 kts | 254° |
| 2026-05-07 20:33 | 51.15626 | -0.18232 | 207 ft | 11 kts | 172° |
| 2026-05-07 20:33 | 51.15537 | -0.18206 | 215 ft | 15 kts | 164° |
| 2026-05-07 20:33 | 51.15458 | -0.18176 | 216 ft | 1 kts | 166° |
| 2026-05-07 20:34 | 51.15434 | -0.18167 | 206 ft | 8 kts | 167° |
| 2026-05-07 20:34 | 51.15354 | -0.18137 | 205 ft | 15 kts | 166° |
| 2026-05-07 20:34 | 51.15278 | -0.18108 | 208 ft | 12 kts | 167° |
| 2026-05-07 20:34 | 51.15216 | -0.18089 | 215 ft | 8 kts | 172° |
| 2026-05-07 20:35 | 51.15192 | -0.18134 | 212 ft | 10 kts | 281° |
| 2026-05-07 20:35 | 51.15187 | -0.18276 | 216 ft | 15 kts | 262° |
| 2026-05-07 20:35 | 51.15168 | -0.18462 | 207 ft | 19 kts | 259° |
| 2026-05-07 20:35 | 51.15134 | -0.18682 | 206 ft | 22 kts | 256° |
| 2026-05-07 20:36 | 51.15097 | -0.18940 | 205 ft | 25 kts | 263° |
| 2026-05-07 20:36 | 51.15063 | -0.19231 | 205 ft | 28 kts | 256° |
| 2026-05-07 20:36 | 51.15014 | -0.19548 | 214 ft | 31 kts | 257° |
| 2026-05-07 20:36 | 51.14968 | -0.19878 | 211 ft | 25 kts | 258° |
| 2026-05-07 20:37 | 51.14936 | -0.20130 | 205 ft | 15 kts | 256° |
| 2026-05-07 20:37 | 51.14912 | -0.20309 | 214 ft | 18 kts | 259° |
| 2026-05-07 20:37 | 51.14883 | -0.20528 | 211 ft | 22 kts | 258° |
| 2026-05-07 20:37 | 51.14852 | -0.20756 | 212 ft | 12 kts | 257° |
| 2026-05-07 20:38 | 51.14831 | -0.20903 | 205 ft | 15 kts | 257° |
| 2026-05-07 20:38 | 51.14806 | -0.21085 | 207 ft | 19 kts | 257° |
| 2026-05-07 20:38 | 51.14769 | -0.21280 | 213 ft | 7 kts | 257° |
| 2026-05-07 20:38 | 51.14752 | -0.21373 | 213 ft | 10 kts | 236° |
| 2026-05-07 20:39 | 51.14676 | -0.21370 | 211 ft | 14 kts | 147° |
| 2026-05-07 20:39 | 51.14573 | -0.21304 | 208 ft | 17 kts | 158° |
| 2026-05-07 20:39 | 51.14527 | -0.21136 | 210 ft | 19 kts | 77° |
| 2026-05-07 20:39 | 51.14581 | -0.20733 | 209 ft | 78 kts | 78° |
| 2026-05-07 20:40 | 51.14760 | -0.19445 | 214 ft | 157 kts | 78° |
| 2026-05-07 20:40 | 51.15021 | -0.17535 | 650 ft | 193 kts | 78° |
| 2026-05-07 20:40 | 51.15322 | -0.15272 | 1470 ft | 221 kts | 79° |
| 2026-05-07 20:40 | 51.15662 | -0.12782 | 2472 ft | 243 kts | 78° |
| 2026-05-07 20:41 | 51.16025 | -0.10159 | 3653 ft | 251 kts | 78° |
| 2026-05-07 20:41 | 51.16405 | -0.07409 | 4664 ft | 257 kts | 78° |
| 2026-05-07 20:41 | 51.16788 | -0.04599 | 5650 ft | 263 kts | 79° |
| 2026-05-07 20:41 | 51.16870 | -0.01654 | 6563 ft | 271 kts | 91° |
| 2026-05-07 20:42 | 51.16814 | 0.01383 | 6851 ft | 276 kts | 92° |
| 2026-05-07 20:42 | 51.16757 | 0.04442 | 6957 ft | 277 kts | 92° |
| 2026-05-07 20:42 | 51.16697 | 0.07528 | 6967 ft | 277 kts | 92° |
| 2026-05-07 20:42 | 51.16637 | 0.10606 | 6954 ft | 278 kts | 92° |
| 2026-05-07 20:43 | 51.16578 | 0.13675 | 6938 ft | 277 kts | 92° |
| 2026-05-07 20:43 | 51.16529 | 0.16697 | 6923 ft | 277 kts | 91° |
| 2026-05-07 20:43 | 51.16520 | 0.19762 | 6909 ft | 278 kts | 90° |
| 2026-05-07 20:43 | 51.16530 | 0.22851 | 6926 ft | 279 kts | 90° |
| 2026-05-07 20:44 | 51.16547 | 0.25980 | 7692 ft | 283 kts | 90° |
| 2026-05-07 20:44 | 51.16564 | 0.29122 | 8674 ft | 286 kts | 90° |
| 2026-05-07 20:44 | 51.16577 | 0.32339 | 9593 ft | 293 kts | 90° |
| 2026-05-07 20:44 | 51.16587 | 0.35612 | 10410 ft | 298 kts | 90° |
| 2026-05-07 20:45 | 51.16591 | 0.38923 | 11252 ft | 302 kts | 91° |
| 2026-05-07 20:45 | 51.16591 | 0.42296 | 12114 ft | 305 kts | 91° |
| 2026-05-07 20:45 | 51.16589 | 0.45696 | 12675 ft | 310 kts | 91° |
| 2026-05-07 20:45 | 51.16792 | 0.49077 | 12829 ft | 311 kts | 76° |
| 2026-05-07 20:46 | 51.17673 | 0.52205 | 12863 ft | 312 kts | 56° |
| 2026-05-07 20:46 | 51.19167 | 0.54693 | 12868 ft | 312 kts | 36° |
| 2026-05-07 20:46 | 51.21096 | 0.56241 | 12870 ft | 311 kts | 15° |
| 2026-05-07 20:46 | 51.23207 | 0.57043 | 12887 ft | 311 kts | 12° |
| 2026-05-07 20:47 | 51.25319 | 0.57815 | 12886 ft | 312 kts | 12° |
| 2026-05-07 20:47 | 51.27434 | 0.58600 | 12899 ft | 312 kts | 12° |
| 2026-05-07 20:47 | 51.29539 | 0.59389 | 12923 ft | 312 kts | 12° |
| 2026-05-07 20:47 | 51.31654 | 0.60184 | 12944 ft | 312 kts | 12° |
| 2026-05-07 20:48 | 51.33759 | 0.60978 | 13117 ft | 312 kts | 12° |
| 2026-05-07 20:48 | 51.35879 | 0.61777 | 13105 ft | 312 kts | 12° |